sensor_id;sensor_type;location;lat;lon;timestamp;temperature;humidity
14585;DHT22;7379;51.506;11.876;2023-04-08T00:00:30;9.30;63.00
14585;DHT22;7379;51.506;11.876;2023-04-08T00:02:57;9.30;62.90
14585;DHT22;7379;51.506;11.876;2023-04-08T00:05:24;9.20;62.60
14585;DHT22;7379;51.506;11.876;2023-04-08T00:07:50;9.20;63.20
14585;DHT22;7379;51.506;11.876;2023-04-08T00:10:17;9.20;63.20
14585;DHT22;7379;51.506;11.876;2023-04-08T00:12:45;9.20;63.00
14585;DHT22;7379;51.506;11.876;2023-04-08T00:15:12;9.20;63.40
14585;DHT22;7379;51.506;11.876;2023-04-08T00:17:40;9.20;63.60
14585;DHT22;7379;51.506;11.876;2023-04-08T00:20:08;9.20;63.40
14585;DHT22;7379;51.506;11.876;2023-04-08T00:22:35;9.20;63.60
14585;DHT22;7379;51.506;11.876;2023-04-08T00:25:02;9.20;63.50
14585;DHT22;7379;51.506;11.876;2023-04-08T00:27:31;9.20;63.60
14585;DHT22;7379;51.506;11.876;2023-04-08T00:29:59;9.20;63.50
14585;DHT22;7379;51.506;11.876;2023-04-08T00:32:27;9.20;63.80
14585;DHT22;7379;51.506;11.876;2023-04-08T00:34:56;9.20;63.30
14585;DHT22;7379;51.506;11.876;2023-04-08T00:37:22;9.20;63.40
14585;DHT22;7379;51.506;11.876;2023-04-08T00:39:50;9.10;63.10
14585;DHT22;7379;51.506;11.876;2023-04-08T00:42:18;9.10;63.50
14585;DHT22;7379;51.506;11.876;2023-04-08T00:44:45;9.10;63.10
14585;DHT22;7379;51.506;11.876;2023-04-08T00:47:12;9.10;63.60
14585;DHT22;7379;51.506;11.876;2023-04-08T00:49:40;9.10;63.30
14585;DHT22;7379;51.506;11.876;2023-04-08T00:52:08;9.10;63.50
14585;DHT22;7379;51.506;11.876;2023-04-08T00:54:36;9.10;64.90
14585;DHT22;7379;51.506;11.876;2023-04-08T00:57:03;9.10;63.80
14585;DHT22;7379;51.506;11.876;2023-04-08T00:59:30;9.10;64.00
14585;DHT22;7379;51.506;11.876;2023-04-08T01:02:01;9.10;64.30
14585;DHT22;7379;51.506;11.876;2023-04-08T01:04:38;9.10;63.90
14585;DHT22;7379;51.506;11.876;2023-04-08T01:07:11;9.10;64.10
14585;DHT22;7379;51.506;11.876;2023-04-08T01:09:44;9.10;64.50
14585;DHT22;7379;51.506;11.876;2023-04-08T01:12:15;9.00;63.90
14585;DHT22;7379;51.506;11.876;2023-04-08T01:14:43;9.00;64.20
14585;DHT22;7379;51.506;11.876;2023-04-08T01:17:12;9.00;64.30
14585;DHT22;7379;51.506;11.876;2023-04-08T01:19:40;9.00;64.10
14585;DHT22;7379;51.506;11.876;2023-04-08T01:22:18;9.00;64.50
14585;DHT22;7379;51.506;11.876;2023-04-08T01:24:49;9.00;64.20
14585;DHT22;7379;51.506;11.876;2023-04-08T01:27:18;9.00;64.30
14585;DHT22;7379;51.506;11.876;2023-04-08T01:29:46;9.00;64.40
14585;DHT22;7379;51.506;11.876;2023-04-08T01:32:15;9.00;64.50
14585;DHT22;7379;51.506;11.876;2023-04-08T01:34:43;9.00;64.50
14585;DHT22;7379;51.506;11.876;2023-04-08T01:37:11;9.00;64.20
14585;DHT22;7379;51.506;11.876;2023-04-08T01:39:39;8.90;64.30
14585;DHT22;7379;51.506;11.876;2023-04-08T01:42:07;8.90;64.30
14585;DHT22;7379;51.506;11.876;2023-04-08T01:44:36;8.90;64.30
14585;DHT22;7379;51.506;11.876;2023-04-08T01:47:03;8.90;64.40
14585;DHT22;7379;51.506;11.876;2023-04-08T01:49:30;8.90;64.80
14585;DHT22;7379;51.506;11.876;2023-04-08T01:51:58;8.90;64.90
14585;DHT22;7379;51.506;11.876;2023-04-08T01:54:26;8.90;64.80
14585;DHT22;7379;51.506;11.876;2023-04-08T01:56:53;8.90;64.70
14585;DHT22;7379;51.506;11.876;2023-04-08T01:59:23;8.90;64.80
14585;DHT22;7379;51.506;11.876;2023-04-08T02:01:56;8.90;64.50
14585;DHT22;7379;51.506;11.876;2023-04-08T02:04:23;8.90;64.50
14585;DHT22;7379;51.506;11.876;2023-04-08T02:06:50;8.90;65.10
14585;DHT22;7379;51.506;11.876;2023-04-08T02:09:16;8.80;64.90
14585;DHT22;7379;51.506;11.876;2023-04-08T02:11:43;8.80;64.50
14585;DHT22;7379;51.506;11.876;2023-04-08T02:14:10;8.80;64.80
14585;DHT22;7379;51.506;11.876;2023-04-08T02:16:39;8.80;65.10
14585;DHT22;7379;51.506;11.876;2023-04-08T02:19:13;8.80;65.30
14585;DHT22;7379;51.506;11.876;2023-04-08T02:21:45;8.80;65.20
14585;DHT22;7379;51.506;11.876;2023-04-08T02:24:13;8.80;65.10
14585;DHT22;7379;51.506;11.876;2023-04-08T02:26:42;8.80;65.00
14585;DHT22;7379;51.506;11.876;2023-04-08T02:29:11;8.80;64.90
14585;DHT22;7379;51.506;11.876;2023-04-08T02:31:40;8.80;65.00
14585;DHT22;7379;51.506;11.876;2023-04-08T02:34:10;8.80;65.50
14585;DHT22;7379;51.506;11.876;2023-04-08T02:36:37;8.80;65.70
14585;DHT22;7379;51.506;11.876;2023-04-08T02:39:05;8.80;65.60
14585;DHT22;7379;51.506;11.876;2023-04-08T02:41:32;8.70;65.40
14585;DHT22;7379;51.506;11.876;2023-04-08T02:43:59;8.70;65.70
14585;DHT22;7379;51.506;11.876;2023-04-08T02:46:26;8.70;65.70
14585;DHT22;7379;51.506;11.876;2023-04-08T02:48:53;8.70;65.70
14585;DHT22;7379;51.506;11.876;2023-04-08T02:51:21;8.70;65.80
14585;DHT22;7379;51.506;11.876;2023-04-08T02:53:48;8.70;66.00
14585;DHT22;7379;51.506;11.876;2023-04-08T02:56:14;8.70;65.80
14585;DHT22;7379;51.506;11.876;2023-04-08T02:58:41;8.70;65.90
14585;DHT22;7379;51.506;11.876;2023-04-08T03:01:08;8.70;66.40
14585;DHT22;7379;51.506;11.876;2023-04-08T03:03:35;8.70;66.20
14585;DHT22;7379;51.506;11.876;2023-04-08T03:06:02;8.70;66.00
14585;DHT22;7379;51.506;11.876;2023-04-08T03:08:30;8.70;66.40
14585;DHT22;7379;51.506;11.876;2023-04-08T03:10:58;8.70;66.70
14585;DHT22;7379;51.506;11.876;2023-04-08T03:13:25;8.70;66.40
14585;DHT22;7379;51.506;11.876;2023-04-08T03:15:51;8.70;66.50
14585;DHT22;7379;51.506;11.876;2023-04-08T03:18:18;8.60;66.60
14585;DHT22;7379;51.506;11.876;2023-04-08T03:20:45;8.70;66.80
14585;DHT22;7379;51.506;11.876;2023-04-08T03:23:12;8.60;66.60
14585;DHT22;7379;51.506;11.876;2023-04-08T03:25:40;8.60;66.80
14585;DHT22;7379;51.506;11.876;2023-04-08T03:28:07;8.60;66.80
14585;DHT22;7379;51.506;11.876;2023-04-08T03:30:34;8.60;66.50
14585;DHT22;7379;51.506;11.876;2023-04-08T03:33:01;8.60;66.60
14585;DHT22;7379;51.506;11.876;2023-04-08T03:35:29;8.60;66.50
14585;DHT22;7379;51.506;11.876;2023-04-08T03:37:57;8.60;66.10
14585;DHT22;7379;51.506;11.876;2023-04-08T03:40:24;8.60;66.60
14585;DHT22;7379;51.506;11.876;2023-04-08T03:42:52;8.60;66.40
14585;DHT22;7379;51.506;11.876;2023-04-08T03:45:19;8.60;66.90
14585;DHT22;7379;51.506;11.876;2023-04-08T03:47:45;8.60;66.80
14585;DHT22;7379;51.506;11.876;2023-04-08T03:50:12;8.60;66.70
14585;DHT22;7379;51.506;11.876;2023-04-08T03:52:39;8.50;66.80
14585;DHT22;7379;51.506;11.876;2023-04-08T03:55:07;8.50;66.60
14585;DHT22;7379;51.506;11.876;2023-04-08T03:57:34;8.50;66.90
14585;DHT22;7379;51.506;11.876;2023-04-08T04:00:02;8.50;66.90
14585;DHT22;7379;51.506;11.876;2023-04-08T04:02:29;8.50;67.00
14585;DHT22;7379;51.506;11.876;2023-04-08T04:04:56;8.50;67.30
14585;DHT22;7379;51.506;11.876;2023-04-08T04:07:22;8.50;67.40
14585;DHT22;7379;51.506;11.876;2023-04-08T04:09:49;8.50;67.40
14585;DHT22;7379;51.506;11.876;2023-04-08T04:12:18;8.50;67.40
14585;DHT22;7379;51.506;11.876;2023-04-08T04:14:46;8.50;67.60
14585;DHT22;7379;51.506;11.876;2023-04-08T04:17:14;8.50;67.40
14585;DHT22;7379;51.506;11.876;2023-04-08T04:19:41;8.50;68.00
14585;DHT22;7379;51.506;11.876;2023-04-08T04:22:07;8.40;67.70
14585;DHT22;7379;51.506;11.876;2023-04-08T04:24:34;8.40;67.30
14585;DHT22;7379;51.506;11.876;2023-04-08T04:27:01;8.40;67.50
14585;DHT22;7379;51.506;11.876;2023-04-08T04:29:30;8.40;67.70
14585;DHT22;7379;51.506;11.876;2023-04-08T04:31:56;8.40;67.50
14585;DHT22;7379;51.506;11.876;2023-04-08T04:34:25;8.40;68.00
14585;DHT22;7379;51.506;11.876;2023-04-08T04:36:51;8.40;67.60
14585;DHT22;7379;51.506;11.876;2023-04-08T04:39:18;8.40;67.90
14585;DHT22;7379;51.506;11.876;2023-04-08T04:41:45;8.40;68.00
14585;DHT22;7379;51.506;11.876;2023-04-08T04:44:13;8.40;67.80
14585;DHT22;7379;51.506;11.876;2023-04-08T04:46:40;8.40;67.80
14585;DHT22;7379;51.506;11.876;2023-04-08T04:49:07;8.40;68.00
14585;DHT22;7379;51.506;11.876;2023-04-08T04:51:35;8.40;68.00
14585;DHT22;7379;51.506;11.876;2023-04-08T04:54:02;8.40;68.00
14585;DHT22;7379;51.506;11.876;2023-04-08T04:56:29;8.40;68.20
14585;DHT22;7379;51.506;11.876;2023-04-08T04:58:55;8.40;68.20
14585;DHT22;7379;51.506;11.876;2023-04-08T05:01:22;8.40;68.20
14585;DHT22;7379;51.506;11.876;2023-04-08T05:03:49;8.40;68.30
14585;DHT22;7379;51.506;11.876;2023-04-08T05:06:16;8.40;68.50
14585;DHT22;7379;51.506;11.876;2023-04-08T05:08:44;8.40;68.20
14585;DHT22;7379;51.506;11.876;2023-04-08T05:11:11;8.40;68.40
14585;DHT22;7379;51.506;11.876;2023-04-08T05:13:37;8.30;68.30
14585;DHT22;7379;51.506;11.876;2023-04-08T05:16:05;8.40;68.30
14585;DHT22;7379;51.506;11.876;2023-04-08T05:18:32;8.30;68.30
14585;DHT22;7379;51.506;11.876;2023-04-08T05:20:59;8.40;68.30
14585;DHT22;7379;51.506;11.876;2023-04-08T05:23:25;8.40;68.30
14585;DHT22;7379;51.506;11.876;2023-04-08T05:25:54;8.40;68.30
14585;DHT22;7379;51.506;11.876;2023-04-08T05:28:21;8.40;68.60
14585;DHT22;7379;51.506;11.876;2023-04-08T05:30:48;8.30;68.60
14585;DHT22;7379;51.506;11.876;2023-04-08T05:33:15;8.30;68.60
14585;DHT22;7379;51.506;11.876;2023-04-08T05:35:42;8.30;68.20
14585;DHT22;7379;51.506;11.876;2023-04-08T05:38:09;8.30;68.50
14585;DHT22;7379;51.506;11.876;2023-04-08T05:40:36;8.30;68.60
14585;DHT22;7379;51.506;11.876;2023-04-08T05:43:04;8.30;68.80
14585;DHT22;7379;51.506;11.876;2023-04-08T05:45:31;8.30;68.80
14585;DHT22;7379;51.506;11.876;2023-04-08T05:47:58;8.30;68.80
14585;DHT22;7379;51.506;11.876;2023-04-08T05:50:24;8.30;68.90
14585;DHT22;7379;51.506;11.876;2023-04-08T05:52:51;8.30;69.00
14585;DHT22;7379;51.506;11.876;2023-04-08T05:55:18;8.30;68.80
14585;DHT22;7379;51.506;11.876;2023-04-08T05:57:45;8.30;68.90
14585;DHT22;7379;51.506;11.876;2023-04-08T06:00:13;8.30;68.80
14585;DHT22;7379;51.506;11.876;2023-04-08T06:02:41;8.30;68.90
14585;DHT22;7379;51.506;11.876;2023-04-08T06:05:08;8.30;69.10
14585;DHT22;7379;51.506;11.876;2023-04-08T06:07:35;8.30;68.90
14585;DHT22;7379;51.506;11.876;2023-04-08T06:10:02;8.30;69.10
14585;DHT22;7379;51.506;11.876;2023-04-08T06:12:29;8.20;69.00
14585;DHT22;7379;51.506;11.876;2023-04-08T06:14:56;8.20;69.10
14585;DHT22;7379;51.506;11.876;2023-04-08T06:17:24;8.20;69.20
14585;DHT22;7379;51.506;11.876;2023-04-08T06:19:51;8.20;69.00
14585;DHT22;7379;51.506;11.876;2023-04-08T06:22:18;8.30;69.20
14585;DHT22;7379;51.506;11.876;2023-04-08T06:24:46;8.20;69.10
14585;DHT22;7379;51.506;11.876;2023-04-08T06:27:13;8.20;69.30
14585;DHT22;7379;51.506;11.876;2023-04-08T06:29:40;8.20;69.40
14585;DHT22;7379;51.506;11.876;2023-04-08T06:32:07;8.20;69.40
14585;DHT22;7379;51.506;11.876;2023-04-08T06:34:35;8.20;69.50
14585;DHT22;7379;51.506;11.876;2023-04-08T06:37:02;8.20;69.50
14585;DHT22;7379;51.506;11.876;2023-04-08T06:39:29;8.20;69.60
14585;DHT22;7379;51.506;11.876;2023-04-08T06:41:56;8.20;69.60
14585;DHT22;7379;51.506;11.876;2023-04-08T06:44:23;8.20;69.70
14585;DHT22;7379;51.506;11.876;2023-04-08T06:46:50;8.20;69.80
14585;DHT22;7379;51.506;11.876;2023-04-08T06:49:17;8.20;69.80
14585;DHT22;7379;51.506;11.876;2023-04-08T06:51:45;8.20;70.70
14585;DHT22;7379;51.506;11.876;2023-04-08T06:54:12;8.20;69.90
14585;DHT22;7379;51.506;11.876;2023-04-08T06:56:38;8.20;70.00
14585;DHT22;7379;51.506;11.876;2023-04-08T06:59:05;8.20;70.00
14585;DHT22;7379;51.506;11.876;2023-04-08T07:01:32;8.20;70.00
14585;DHT22;7379;51.506;11.876;2023-04-08T07:03:59;8.20;69.90
14585;DHT22;7379;51.506;11.876;2023-04-08T07:06:26;8.20;70.10
14585;DHT22;7379;51.506;11.876;2023-04-08T07:08:55;8.20;69.80
14585;DHT22;7379;51.506;11.876;2023-04-08T07:11:22;8.20;70.00
14585;DHT22;7379;51.506;11.876;2023-04-08T07:13:48;8.20;70.10
14585;DHT22;7379;51.506;11.876;2023-04-08T07:16:16;8.20;70.30
14585;DHT22;7379;51.506;11.876;2023-04-08T07:18:43;8.20;70.20
14585;DHT22;7379;51.506;11.876;2023-04-08T07:21:11;8.20;70.00
14585;DHT22;7379;51.506;11.876;2023-04-08T07:23:38;8.10;70.20
14585;DHT22;7379;51.506;11.876;2023-04-08T07:26:06;8.20;70.40
14585;DHT22;7379;51.506;11.876;2023-04-08T07:28:33;8.10;70.30
14585;DHT22;7379;51.506;11.876;2023-04-08T07:31:10;8.20;70.30
14585;DHT22;7379;51.506;11.876;2023-04-08T07:33:37;8.10;71.10
14585;DHT22;7379;51.506;11.876;2023-04-08T07:36:04;8.10;70.30
14585;DHT22;7379;51.506;11.876;2023-04-08T07:38:31;8.20;70.40
14585;DHT22;7379;51.506;11.876;2023-04-08T07:40:58;8.20;70.50
14585;DHT22;7379;51.506;11.876;2023-04-08T07:43:26;8.10;70.40
14585;DHT22;7379;51.506;11.876;2023-04-08T07:45:55;8.20;70.60
14585;DHT22;7379;51.506;11.876;2023-04-08T07:48:27;8.10;70.60
14585;DHT22;7379;51.506;11.876;2023-04-08T07:50:53;8.10;70.50
14585;DHT22;7379;51.506;11.876;2023-04-08T07:53:20;8.20;70.60
14585;DHT22;7379;51.506;11.876;2023-04-08T07:55:48;8.10;70.40
14585;DHT22;7379;51.506;11.876;2023-04-08T07:58:14;8.10;70.40
14585;DHT22;7379;51.506;11.876;2023-04-08T08:00:43;8.10;70.30
14585;DHT22;7379;51.506;11.876;2023-04-08T08:03:09;8.10;70.50
14585;DHT22;7379;51.506;11.876;2023-04-08T08:05:36;8.10;70.60
14585;DHT22;7379;51.506;11.876;2023-04-08T08:08:03;8.10;70.40
14585;DHT22;7379;51.506;11.876;2023-04-08T08:10:32;8.10;70.60
14585;DHT22;7379;51.506;11.876;2023-04-08T08:12:58;8.20;70.60
14585;DHT22;7379;51.506;11.876;2023-04-08T08:15:25;8.10;70.70
14585;DHT22;7379;51.506;11.876;2023-04-08T08:17:53;8.20;70.70
14585;DHT22;7379;51.506;11.876;2023-04-08T08:20:20;8.20;70.70
14585;DHT22;7379;51.506;11.876;2023-04-08T08:22:47;8.20;70.90
14585;DHT22;7379;51.506;11.876;2023-04-08T08:25:14;8.20;70.70
14585;DHT22;7379;51.506;11.876;2023-04-08T08:27:41;8.20;70.70
14585;DHT22;7379;51.506;11.876;2023-04-08T08:30:08;8.20;70.50
14585;DHT22;7379;51.506;11.876;2023-04-08T08:32:35;8.20;70.60
14585;DHT22;7379;51.506;11.876;2023-04-08T08:35:04;8.20;71.40
14585;DHT22;7379;51.506;11.876;2023-04-08T08:37:31;8.20;70.80
14585;DHT22;7379;51.506;11.876;2023-04-08T08:39:57;8.20;70.70
14585;DHT22;7379;51.506;11.876;2023-04-08T08:42:25;8.20;70.90
14585;DHT22;7379;51.506;11.876;2023-04-08T08:44:52;8.20;71.20
14585;DHT22;7379;51.506;11.876;2023-04-08T08:47:20;8.20;71.00
14585;DHT22;7379;51.506;11.876;2023-04-08T08:49:47;8.20;71.10
14585;DHT22;7379;51.506;11.876;2023-04-08T08:52:16;8.20;71.10
14585;DHT22;7379;51.506;11.876;2023-04-08T08:54:43;8.20;71.10
14585;DHT22;7379;51.506;11.876;2023-04-08T08:57:17;8.20;73.20
14585;DHT22;7379;51.506;11.876;2023-04-08T08:59:45;8.20;74.40
14585;DHT22;7379;51.506;11.876;2023-04-08T09:02:23;8.20;76.20
14585;DHT22;7379;51.506;11.876;2023-04-08T09:04:56;8.30;76.10
14585;DHT22;7379;51.506;11.876;2023-04-08T09:07:25;8.20;75.40
14585;DHT22;7379;51.506;11.876;2023-04-08T09:09:53;8.30;75.00
14585;DHT22;7379;51.506;11.876;2023-04-08T09:12:20;8.20;74.60
14585;DHT22;7379;51.506;11.876;2023-04-08T09:14:47;8.20;74.20
14585;DHT22;7379;51.506;11.876;2023-04-08T09:17:14;8.20;73.70
14585;DHT22;7379;51.506;11.876;2023-04-08T09:20:03;8.20;73.40
14585;DHT22;7379;51.506;11.876;2023-04-08T09:22:54;8.20;73.20
14585;DHT22;7379;51.506;11.876;2023-04-08T09:25:22;8.20;73.10
14585;DHT22;7379;51.506;11.876;2023-04-08T09:27:49;8.20;73.10
14585;DHT22;7379;51.506;11.876;2023-04-08T09:30:17;8.20;72.80
14585;DHT22;7379;51.506;11.876;2023-04-08T09:32:48;8.20;72.60
14585;DHT22;7379;51.506;11.876;2023-04-08T09:35:17;8.20;72.60
14585;DHT22;7379;51.506;11.876;2023-04-08T09:37:51;8.20;72.40
14585;DHT22;7379;51.506;11.876;2023-04-08T09:40:18;8.20;72.40
14585;DHT22;7379;51.506;11.876;2023-04-08T09:42:47;8.20;72.30
14585;DHT22;7379;51.506;11.876;2023-04-08T09:45:17;8.20;72.50
14585;DHT22;7379;51.506;11.876;2023-04-08T09:47:54;8.20;72.70
14585;DHT22;7379;51.506;11.876;2023-04-08T09:50:26;8.30;73.40
14585;DHT22;7379;51.506;11.876;2023-04-08T09:52:59;8.30;73.60
14585;DHT22;7379;51.506;11.876;2023-04-08T09:55:29;8.30;74.30
14585;DHT22;7379;51.506;11.876;2023-04-08T09:57:59;8.30;74.70
14585;DHT22;7379;51.506;11.876;2023-04-08T10:00:31;8.40;75.60
14585;DHT22;7379;51.506;11.876;2023-04-08T10:03:05;8.40;75.10
14585;DHT22;7379;51.506;11.876;2023-04-08T10:05:36;8.40;74.90
14585;DHT22;7379;51.506;11.876;2023-04-08T10:08:05;8.40;75.50
14585;DHT22;7379;51.506;11.876;2023-04-08T10:10:33;8.40;75.00
14585;DHT22;7379;51.506;11.876;2023-04-08T10:13:01;8.50;75.30
14585;DHT22;7379;51.506;11.876;2023-04-08T10:15:29;8.50;75.70
14585;DHT22;7379;51.506;11.876;2023-04-08T10:18:31;8.50;75.30
14585;DHT22;7379;51.506;11.876;2023-04-08T10:20:59;8.50;75.00
14585;DHT22;7379;51.506;11.876;2023-04-08T10:23:54;8.60;74.60
14585;DHT22;7379;51.506;11.876;2023-04-08T10:26:30;8.60;75.50
14585;DHT22;7379;51.506;11.876;2023-04-08T10:29:30;8.60;74.40
14585;DHT22;7379;51.506;11.876;2023-04-08T10:31:57;8.70;74.10
14585;DHT22;7379;51.506;11.876;2023-04-08T10:34:25;8.70;74.00
14585;DHT22;7379;51.506;11.876;2023-04-08T10:36:53;8.70;73.60
14585;DHT22;7379;51.506;11.876;2023-04-08T10:39:24;8.70;73.40
14585;DHT22;7379;51.506;11.876;2023-04-08T10:41:52;8.70;74.00
14585;DHT22;7379;51.506;11.876;2023-04-08T10:44:21;8.70;73.90
14585;DHT22;7379;51.506;11.876;2023-04-08T10:46:50;8.70;73.60
14585;DHT22;7379;51.506;11.876;2023-04-08T10:49:17;8.80;73.90
14585;DHT22;7379;51.506;11.876;2023-04-08T10:51:44;8.80;73.60
14585;DHT22;7379;51.506;11.876;2023-04-08T10:54:13;8.80;73.40
14585;DHT22;7379;51.506;11.876;2023-04-08T10:56:46;8.80;73.20
14585;DHT22;7379;51.506;11.876;2023-04-08T10:59:14;8.80;72.80
14585;DHT22;7379;51.506;11.876;2023-04-08T11:01:43;8.90;73.20
14585;DHT22;7379;51.506;11.876;2023-04-08T11:04:12;8.90;73.40
14585;DHT22;7379;51.506;11.876;2023-04-08T11:06:38;8.90;73.40
14585;DHT22;7379;51.506;11.876;2023-04-08T11:09:07;8.90;72.80
14585;DHT22;7379;51.506;11.876;2023-04-08T11:11:34;8.90;73.20
14585;DHT22;7379;51.506;11.876;2023-04-08T11:14:03;8.90;73.20
14585;DHT22;7379;51.506;11.876;2023-04-08T11:16:29;9.00;73.70
14585;DHT22;7379;51.506;11.876;2023-04-08T11:18:57;9.00;73.30
14585;DHT22;7379;51.506;11.876;2023-04-08T11:21:24;9.00;72.90
14585;DHT22;7379;51.506;11.876;2023-04-08T11:23:54;9.10;73.50
14585;DHT22;7379;51.506;11.876;2023-04-08T11:26:22;9.10;73.20
14585;DHT22;7379;51.506;11.876;2023-04-08T11:28:49;9.10;73.00
14585;DHT22;7379;51.506;11.876;2023-04-08T11:31:18;9.10;72.70
14585;DHT22;7379;51.506;11.876;2023-04-08T11:33:47;9.10;73.20
14585;DHT22;7379;51.506;11.876;2023-04-08T11:36:14;9.10;72.60
14585;DHT22;7379;51.506;11.876;2023-04-08T11:38:43;9.10;72.80
14585;DHT22;7379;51.506;11.876;2023-04-08T11:41:12;9.10;72.30
14585;DHT22;7379;51.506;11.876;2023-04-08T11:43:50;9.20;72.90
14585;DHT22;7379;51.506;11.876;2023-04-08T11:46:18;9.20;72.50
14585;DHT22;7379;51.506;11.876;2023-04-08T11:49:02;9.20;72.30
14585;DHT22;7379;51.506;11.876;2023-04-08T11:51:29;9.20;71.90
14585;DHT22;7379;51.506;11.876;2023-04-08T11:53:56;9.20;72.20
14585;DHT22;7379;51.506;11.876;2023-04-08T11:56:23;9.10;71.80
14585;DHT22;7379;51.506;11.876;2023-04-08T11:58:51;9.10;72.50
14585;DHT22;7379;51.506;11.876;2023-04-08T12:01:19;9.10;72.30
14585;DHT22;7379;51.506;11.876;2023-04-08T12:03:54;9.10;72.50
14585;DHT22;7379;51.506;11.876;2023-04-08T12:06:21;9.10;72.60
14585;DHT22;7379;51.506;11.876;2023-04-08T12:08:48;9.10;72.40
14585;DHT22;7379;51.506;11.876;2023-04-08T12:11:15;9.10;73.00
14585;DHT22;7379;51.506;11.876;2023-04-08T12:13:41;9.10;72.60
14585;DHT22;7379;51.506;11.876;2023-04-08T12:16:08;9.10;72.30
14585;DHT22;7379;51.506;11.876;2023-04-08T12:18:37;9.10;72.60
14585;DHT22;7379;51.506;11.876;2023-04-08T12:21:03;9.10;72.40
14585;DHT22;7379;51.506;11.876;2023-04-08T12:23:30;9.10;72.60
14585;DHT22;7379;51.506;11.876;2023-04-08T12:25:57;9.10;72.90
14585;DHT22;7379;51.506;11.876;2023-04-08T12:28:24;9.10;72.60
14585;DHT22;7379;51.506;11.876;2023-04-08T12:30:50;9.10;72.30
14585;DHT22;7379;51.506;11.876;2023-04-08T12:33:17;9.20;72.50
14585;DHT22;7379;51.506;11.876;2023-04-08T12:35:46;9.20;72.80
14585;DHT22;7379;51.506;11.876;2023-04-08T12:38:13;9.20;72.80
14585;DHT22;7379;51.506;11.876;2023-04-08T12:40:40;9.20;72.60
14585;DHT22;7379;51.506;11.876;2023-04-08T12:43:06;9.20;72.60
14585;DHT22;7379;51.506;11.876;2023-04-08T12:45:33;9.30;72.90
14585;DHT22;7379;51.506;11.876;2023-04-08T12:48:01;9.30;72.80
14585;DHT22;7379;51.506;11.876;2023-04-08T12:50:27;9.30;72.60
14585;DHT22;7379;51.506;11.876;2023-04-08T12:52:56;9.30;72.70
14585;DHT22;7379;51.506;11.876;2023-04-08T12:55:22;9.30;72.90
14585;DHT22;7379;51.506;11.876;2023-04-08T12:57:50;9.30;72.70
14585;DHT22;7379;51.506;11.876;2023-04-08T13:00:17;9.30;73.60
14585;DHT22;7379;51.506;11.876;2023-04-08T13:02:45;9.30;73.60
14585;DHT22;7379;51.506;11.876;2023-04-08T13:05:12;9.30;74.00
14585;DHT22;7379;51.506;11.876;2023-04-08T13:07:39;9.30;74.50
14585;DHT22;7379;51.506;11.876;2023-04-08T13:10:09;9.30;74.50
14585;DHT22;7379;51.506;11.876;2023-04-08T13:12:36;9.30;74.30
14585;DHT22;7379;51.506;11.876;2023-04-08T13:15:05;9.30;75.00
14585;DHT22;7379;51.506;11.876;2023-04-08T13:17:32;9.30;74.50
14585;DHT22;7379;51.506;11.876;2023-04-08T13:20:00;9.30;75.40
14585;DHT22;7379;51.506;11.876;2023-04-08T13:22:27;9.30;75.80
14585;DHT22;7379;51.506;11.876;2023-04-08T13:24:54;9.30;75.60
14585;DHT22;7379;51.506;11.876;2023-04-08T13:27:22;9.30;75.00
14585;DHT22;7379;51.506;11.876;2023-04-08T13:29:49;9.30;75.00
14585;DHT22;7379;51.506;11.876;2023-04-08T13:32:16;9.30;74.80
14585;DHT22;7379;51.506;11.876;2023-04-08T13:34:43;9.30;75.10
14585;DHT22;7379;51.506;11.876;2023-04-08T13:37:09;9.30;74.80
14585;DHT22;7379;51.506;11.876;2023-04-08T13:39:36;9.30;74.80
14585;DHT22;7379;51.506;11.876;2023-04-08T13:42:03;9.40;75.30
14585;DHT22;7379;51.506;11.876;2023-04-08T13:44:31;9.40;76.00
14585;DHT22;7379;51.506;11.876;2023-04-08T13:46:58;9.40;75.90
14585;DHT22;7379;51.506;11.876;2023-04-08T13:49:25;9.40;75.80
14585;DHT22;7379;51.506;11.876;2023-04-08T13:51:52;9.40;74.90
14585;DHT22;7379;51.506;11.876;2023-04-08T13:54:18;9.50;75.10
14585;DHT22;7379;51.506;11.876;2023-04-08T13:56:45;9.50;74.70
14585;DHT22;7379;51.506;11.876;2023-04-08T13:59:12;9.50;75.00
14585;DHT22;7379;51.506;11.876;2023-04-08T14:01:40;9.50;74.70
14585;DHT22;7379;51.506;11.876;2023-04-08T14:04:07;9.50;75.00
14585;DHT22;7379;51.506;11.876;2023-04-08T14:06:34;9.50;75.30
14585;DHT22;7379;51.506;11.876;2023-04-08T14:09:01;9.50;76.00
14585;DHT22;7379;51.506;11.876;2023-04-08T14:11:28;9.60;75.00
14585;DHT22;7379;51.506;11.876;2023-04-08T14:13:55;9.60;74.40
14585;DHT22;7379;51.506;11.876;2023-04-08T14:16:22;9.60;75.00
14585;DHT22;7379;51.506;11.876;2023-04-08T14:18:50;9.70;74.80
14585;DHT22;7379;51.506;11.876;2023-04-08T14:21:17;9.70;74.90
14585;DHT22;7379;51.506;11.876;2023-04-08T14:23:44;9.60;74.80
14585;DHT22;7379;51.506;11.876;2023-04-08T14:26:12;9.60;74.80
14585;DHT22;7379;51.506;11.876;2023-04-08T14:28:38;9.60;74.80
14585;DHT22;7379;51.506;11.876;2023-04-08T14:31:06;9.60;74.90
14585;DHT22;7379;51.506;11.876;2023-04-08T14:33:32;9.60;75.40
14585;DHT22;7379;51.506;11.876;2023-04-08T14:36:01;9.60;75.90
14585;DHT22;7379;51.506;11.876;2023-04-08T14:38:27;9.60;76.90
14585;DHT22;7379;51.506;11.876;2023-04-08T14:40:54;9.60;77.20
14585;DHT22;7379;51.506;11.876;2023-04-08T14:43:21;9.70;77.40
14585;DHT22;7379;51.506;11.876;2023-04-08T14:45:49;9.60;77.60
14585;DHT22;7379;51.506;11.876;2023-04-08T14:48:16;9.60;77.70
14585;DHT22;7379;51.506;11.876;2023-04-08T14:50:43;9.60;77.90
14585;DHT22;7379;51.506;11.876;2023-04-08T14:53:11;9.60;77.70
14585;DHT22;7379;51.506;11.876;2023-04-08T14:55:38;9.60;77.20
14585;DHT22;7379;51.506;11.876;2023-04-08T14:58:04;9.60;77.30
14585;DHT22;7379;51.506;11.876;2023-04-08T15:00:31;9.60;77.50
14585;DHT22;7379;51.506;11.876;2023-04-08T15:02:58;9.60;77.80
14585;DHT22;7379;51.506;11.876;2023-04-08T15:05:25;9.60;77.40
14585;DHT22;7379;51.506;11.876;2023-04-08T15:07:52;9.60;77.60
14585;DHT22;7379;51.506;11.876;2023-04-08T15:10:20;9.60;77.50
14585;DHT22;7379;51.506;11.876;2023-04-08T15:12:47;9.60;77.10
14585;DHT22;7379;51.506;11.876;2023-04-08T15:15:14;9.60;76.80
14585;DHT22;7379;51.506;11.876;2023-04-08T15:17:41;9.60;77.30
14585;DHT22;7379;51.506;11.876;2023-04-08T15:20:08;9.60;77.40
14585;DHT22;7379;51.506;11.876;2023-04-08T15:22:35;9.60;77.70
14585;DHT22;7379;51.506;11.876;2023-04-08T15:25:02;9.60;77.80
14585;DHT22;7379;51.506;11.876;2023-04-08T15:27:32;9.60;77.60
14585;DHT22;7379;51.506;11.876;2023-04-08T15:30:00;9.60;77.30
14585;DHT22;7379;51.506;11.876;2023-04-08T15:32:27;9.60;77.10
14585;DHT22;7379;51.506;11.876;2023-04-08T15:34:54;9.60;77.00
14585;DHT22;7379;51.506;11.876;2023-04-08T15:37:21;9.60;77.00
14585;DHT22;7379;51.506;11.876;2023-04-08T15:39:48;9.60;76.60
14585;DHT22;7379;51.506;11.876;2023-04-08T15:42:14;9.60;76.50
14585;DHT22;7379;51.506;11.876;2023-04-08T15:44:43;9.70;76.80
14585;DHT22;7379;51.506;11.876;2023-04-08T15:47:09;9.70;76.50
14585;DHT22;7379;51.506;11.876;2023-04-08T15:49:36;9.70;76.20